createdAt,value
2023-05-23T00:01:24.812Z,19.20
2023-05-23T00:03:57.366Z,19.00
2023-05-23T00:06:29.426Z,18.13
2023-05-23T00:09:01.884Z,18.67
2023-05-23T00:11:33.894Z,18.50
2023-05-23T00:14:08.425Z,17.90
2023-05-23T00:16:42.904Z,17.27
2023-05-23T00:19:16.377Z,18.30
2023-05-23T00:21:48.847Z,16.47
2023-05-23T00:24:20.773Z,17.20
2023-05-23T00:26:52.927Z,17.50
2023-05-23T00:29:24.926Z,15.67
2023-05-23T00:31:57.154Z,16.97
2023-05-23T00:34:29.304Z,16.73
2023-05-23T00:37:02.365Z,15.63
2023-05-23T00:39:34.378Z,15.63
2023-05-23T00:42:06.730Z,14.77
2023-05-23T00:44:38.681Z,15.10
2023-05-23T00:47:13.858Z,15.30
2023-05-23T00:49:46.307Z,14.23
2023-05-23T00:52:18.334Z,14.37
2023-05-23T00:54:50.675Z,12.83
2023-05-23T00:57:23.192Z,12.73
2023-05-23T00:59:55.735Z,12.57
2023-05-23T01:02:28.655Z,11.20
2023-05-23T01:05:02.464Z,11.83
2023-05-23T01:07:34.407Z,11.80
2023-05-23T01:10:07.860Z,11.23
2023-05-23T01:13:25.004Z,11.23
2023-05-23T01:16:14.958Z,11.33
2023-05-23T01:19:14.581Z,11.17
2023-05-23T01:21:54.970Z,11.27
2023-05-23T01:24:36.684Z,11.10
2023-05-23T01:27:42.366Z,10.93
2023-05-23T01:30:19.190Z,10.97
2023-05-23T01:32:56.642Z,11.07
2023-05-23T01:35:29.446Z,10.17
2023-05-23T01:38:01.636Z,10.53
2023-05-23T01:40:33.582Z,10.60
2023-05-23T01:43:05.703Z,11.50
2023-05-23T01:45:37.904Z,11.40
2023-05-23T01:48:11.950Z,10.87
2023-05-23T01:50:47.688Z,11.60
2023-05-23T01:53:23.649Z,11.00
2023-05-23T01:55:56.369Z,11.53
2023-05-23T01:58:28.478Z,11.80
2023-05-23T02:01:01.323Z,11.83
2023-05-23T02:03:33.474Z,11.43
2023-05-23T02:06:05.643Z,11.53
2023-05-23T02:08:37.792Z,12.33
2023-05-23T02:11:10.719Z,11.87
2023-05-23T02:13:42.673Z,12.97
2023-05-23T02:16:14.703Z,13.27
2023-05-23T02:18:46.829Z,13.20
2023-05-23T02:21:19.422Z,12.83
2023-05-23T02:23:51.405Z,13.70
2023-05-23T02:26:23.426Z,12.93
2023-05-23T02:28:55.412Z,13.37
2023-05-23T02:31:28.079Z,13.30
2023-05-23T02:34:00.186Z,12.93
2023-05-23T02:36:33.484Z,12.70
2023-05-23T02:39:06.616Z,12.90
2023-05-23T02:41:38.802Z,12.10
2023-05-23T02:44:10.867Z,11.90
2023-05-23T02:46:42.873Z,12.33
2023-05-23T02:49:14.956Z,11.43
2023-05-23T02:51:46.936Z,12.10
2023-05-23T02:54:18.998Z,11.33
2023-05-23T02:56:52.466Z,12.70
2023-05-23T02:59:24.466Z,12.60
2023-05-23T03:01:56.436Z,12.93
2023-05-23T03:04:29.632Z,12.67
2023-05-23T03:07:05.335Z,12.07
2023-05-23T03:09:39.107Z,11.87
2023-05-23T03:12:11.084Z,11.27
2023-05-23T03:14:43.000Z,10.10
2023-05-23T03:17:14.964Z,9.93
2023-05-23T03:19:46.921Z,9.80
2023-05-23T03:22:18.881Z,9.17
2023-05-23T03:24:50.763Z,8.67
2023-05-23T03:27:22.690Z,8.47
2023-05-23T03:29:54.648Z,8.20
2023-05-23T03:32:26.706Z,8.27
2023-05-23T03:34:58.661Z,7.20
2023-05-23T03:37:30.651Z,7.43
2023-05-23T03:40:02.708Z,7.10
2023-05-23T03:42:34.638Z,6.10
2023-05-23T03:45:07.324Z,6.30
2023-05-23T03:47:39.570Z,6.17
2023-05-23T03:50:11.625Z,5.27
2023-05-23T03:52:43.613Z,6.00
2023-05-23T03:55:15.804Z,5.38
2023-05-23T03:57:51.851Z,5.13
2023-05-23T04:00:23.866Z,5.77
2023-05-23T04:02:57.348Z,5.80
2023-05-23T04:05:29.402Z,5.73
2023-05-23T04:08:01.398Z,6.10
2023-05-23T04:10:33.364Z,5.77
2023-05-23T04:13:06.364Z,5.83
2023-05-23T04:15:39.911Z,5.90
2023-05-23T04:18:12.156Z,6.57
2023-05-23T04:20:44.248Z,6.30
2023-05-23T04:23:16.336Z,6.80
2023-05-23T04:25:48.531Z,6.53
2023-05-23T04:28:20.664Z,6.83
2023-05-23T04:30:53.593Z,6.33
2023-05-23T04:33:26.301Z,6.30
2023-05-23T04:35:58.314Z,6.17
2023-05-23T04:38:30.332Z,6.13
2023-05-23T04:41:02.466Z,6.83
2023-05-23T04:43:34.483Z,6.77
2023-05-23T04:46:06.525Z,7.10
2023-05-23T04:48:39.036Z,7.03
2023-05-23T04:51:11.598Z,7.37
2023-05-23T04:53:44.562Z,8.83
2023-05-23T04:56:18.590Z,8.27
2023-05-23T04:58:51.899Z,8.77
2023-05-23T05:01:28.104Z,9.03
2023-05-23T05:04:00.437Z,9.77
2023-05-23T05:06:32.827Z,8.90
2023-05-23T05:09:04.847Z,9.63
2023-05-23T05:11:36.835Z,8.83
2023-05-23T05:14:08.861Z,10.17
2023-05-23T05:16:40.951Z,9.80
2023-05-23T05:19:13.078Z,9.50
2023-05-23T05:21:45.088Z,10.23
2023-05-23T05:24:17.121Z,10.50
2023-05-23T05:26:49.385Z,10.40
2023-05-23T05:29:21.619Z,10.20
2023-05-23T05:31:53.606Z,11.47
2023-05-23T05:34:25.553Z,11.23
2023-05-23T05:36:57.537Z,10.40
2023-05-23T05:39:29.449Z,11.03
2023-05-23T05:42:03.785Z,10.70
2023-05-23T05:44:36.101Z,10.77
2023-05-23T05:47:08.092Z,10.87
2023-05-23T05:49:40.208Z,11.30
2023-05-23T05:52:12.251Z,11.03
2023-05-23T05:54:44.236Z,10.53
2023-05-23T05:57:16.350Z,10.77
2023-05-23T05:59:48.375Z,10.00
2023-05-23T06:02:20.433Z,10.53
2023-05-23T06:04:52.442Z,10.00
2023-05-23T06:07:24.403Z,10.20
2023-05-23T06:09:56.579Z,9.23
2023-05-23T06:12:28.544Z,9.27
2023-05-23T06:15:00.472Z,9.00
2023-05-23T06:17:32.721Z,9.03
2023-05-23T06:20:05.893Z,8.50
2023-05-23T06:22:38.060Z,8.10
2023-05-23T06:25:10.316Z,7.90
2023-05-23T06:27:42.312Z,6.80
2023-05-23T06:30:15.106Z,6.77
2023-05-23T06:32:47.069Z,6.63
2023-05-23T06:35:19.382Z,6.63
2023-05-23T06:37:51.340Z,6.27
2023-05-23T06:40:23.392Z,6.80
2023-05-23T06:42:55.865Z,5.73
2023-05-23T06:45:27.913Z,5.63
2023-05-23T06:48:01.324Z,5.77
2023-05-23T06:50:33.451Z,5.23
2023-05-23T06:53:06.509Z,5.87
2023-05-23T06:55:38.437Z,5.67
2023-05-23T06:58:10.605Z,5.70
2023-05-23T07:00:42.867Z,6.10
2023-05-23T07:03:15.054Z,5.13
2023-05-23T07:05:47.066Z,5.63
2023-05-23T07:08:19.176Z,5.77
2023-05-23T07:10:51.442Z,5.50
2023-05-23T07:13:23.417Z,5.67
2023-05-23T07:15:56.729Z,5.57
2023-05-23T07:18:28.964Z,5.53
2023-05-23T07:21:01.030Z,5.90
2023-05-23T07:23:34.497Z,5.30
2023-05-23T07:26:09.731Z,5.67
2023-05-23T07:28:41.827Z,5.30
2023-05-23T07:31:14.283Z,5.47
2023-05-23T07:33:46.332Z,5.10
2023-05-23T07:36:18.308Z,6.00
2023-05-23T07:38:50.256Z,5.07
2023-05-23T07:41:22.263Z,5.20
2023-05-23T07:43:54.228Z,5.73
2023-05-23T07:46:26.178Z,5.33
2023-05-23T07:48:58.216Z,5.20
2023-05-23T07:51:30.927Z,5.30
2023-05-23T07:54:03.018Z,5.30
2023-05-23T07:56:35.011Z,5.40
2023-05-23T07:59:08.797Z,5.53
2023-05-23T08:01:42.192Z,4.93
2023-05-23T08:04:14.369Z,5.60
2023-05-23T08:07:04.204Z,5.43
2023-05-23T08:09:38.267Z,5.10
2023-05-23T08:12:11.051Z,5.10
2023-05-23T08:17:21.653Z,4.97
2023-05-23T08:19:53.823Z,5.43
2023-05-23T08:22:25.813Z,5.27
2023-05-23T08:24:57.795Z,5.17
2023-05-23T08:27:30.413Z,5.37
2023-05-23T08:30:04.888Z,5.47
2023-05-23T08:32:36.872Z,5.47
2023-05-23T08:35:09.268Z,5.10
2023-05-23T08:37:41.947Z,5.00
2023-05-23T08:40:22.366Z,5.30
2023-05-23T08:42:54.717Z,5.13
2023-05-23T08:45:27.035Z,4.73
2023-05-23T08:48:02.109Z,4.83
2023-05-23T08:50:37.866Z,4.30
2023-05-23T08:53:10.390Z,4.33
2023-05-23T08:55:42.673Z,4.10
2023-05-23T08:58:16.452Z,4.33
2023-05-23T09:00:50.186Z,4.90
2023-05-23T09:03:23.234Z,4.10
2023-05-23T09:05:55.592Z,4.00
2023-05-23T09:08:28.114Z,4.70
2023-05-23T09:11:02.985Z,4.07
2023-05-23T09:13:35.260Z,4.00
2023-05-23T09:16:11.014Z,4.20
2023-05-23T09:18:45.202Z,3.83
2023-05-23T09:21:17.321Z,3.87
2023-05-23T09:23:49.725Z,3.50
2023-05-23T09:26:22.160Z,3.70
2023-05-23T09:28:59.579Z,3.67
2023-05-23T09:31:32.813Z,3.80
2023-05-23T09:34:04.920Z,3.80
2023-05-23T09:36:41.327Z,3.63
2023-05-23T09:39:13.384Z,3.77
2023-05-23T09:41:49.553Z,3.93
2023-05-23T09:44:24.329Z,3.50
2023-05-23T09:46:56.465Z,3.33
2023-05-23T09:49:28.654Z,3.50
2023-05-23T09:52:01.487Z,3.70
2023-05-23T09:54:33.514Z,3.33
2023-05-23T09:57:11.405Z,3.50
2023-05-23T09:59:57.073Z,3.67
2023-05-23T10:03:14.735Z,3.57
2023-05-23T10:05:49.891Z,3.60
2023-05-23T10:08:44.464Z,3.57
2023-05-23T10:11:17.035Z,3.30
2023-05-23T10:13:51.878Z,3.40
2023-05-23T10:17:04.094Z,3.23
2023-05-23T10:19:47.431Z,3.30
2023-05-23T10:22:21.055Z,2.90
2023-05-23T10:24:53.920Z,3.20
2023-05-23T10:27:26.789Z,3.40
2023-05-23T10:30:00.933Z,3.27
2023-05-23T10:32:34.789Z,3.20
2023-05-23T10:35:32.889Z,3.30
2023-05-23T10:38:51.591Z,3.10
2023-05-23T10:41:37.419Z,3.80
2023-05-23T10:44:24.736Z,3.30
2023-05-23T10:47:01.718Z,3.33
2023-05-23T10:49:52.432Z,3.33
2023-05-23T10:52:29.149Z,3.37
2023-05-23T10:55:01.184Z,3.37
2023-05-23T10:57:33.677Z,3.33
2023-05-23T11:00:13.223Z,3.70
2023-05-23T11:02:55.770Z,3.73
2023-05-23T11:05:31.952Z,3.63
2023-05-23T11:08:13.781Z,3.83
2023-05-23T11:11:00.705Z,3.40
2023-05-23T11:14:02.715Z,3.20
2023-05-23T11:16:46.970Z,3.80
2023-05-23T11:19:19.278Z,3.10
2023-05-23T11:22:06.219Z,3.40
2023-05-23T11:24:54.639Z,4.03
2023-05-23T11:27:37.964Z,3.03
2023-05-23T11:30:13.870Z,3.27
2023-05-23T11:32:56.133Z,3.40
2023-05-23T11:35:30.881Z,3.17
2023-05-23T11:38:05.358Z,3.53
2023-05-23T11:40:43.355Z,3.20
2023-05-23T11:43:18.220Z,3.10
2023-05-23T11:45:50.736Z,3.00
2023-05-23T11:48:22.731Z,3.67
2023-05-23T11:50:55.034Z,3.20
2023-05-23T11:53:28.489Z,3.60
2023-05-23T11:56:03.380Z,3.00
2023-05-23T11:58:38.447Z,3.13
2023-05-23T12:01:12.811Z,4.10
2023-05-23T12:03:50.992Z,3.10
2023-05-23T12:06:24.909Z,2.80
2023-05-23T12:08:59.473Z,3.07
2023-05-23T12:11:35.512Z,2.77
2023-05-23T12:14:09.439Z,3.23
2023-05-23T12:16:48.698Z,3.20
2023-05-23T12:19:21.333Z,3.50
2023-05-23T12:21:53.490Z,3.20
2023-05-23T12:24:25.589Z,3.20
2023-05-23T12:27:03.528Z,3.33
2023-05-23T12:29:37.197Z,2.93
2023-05-23T12:32:09.206Z,3.10
2023-05-23T12:34:44.361Z,3.50
2023-05-23T12:37:20.234Z,3.00
2023-05-23T12:39:52.800Z,3.10
2023-05-23T12:42:24.856Z,3.10
2023-05-23T12:44:56.971Z,2.93
2023-05-23T12:47:29.082Z,2.77
2023-05-23T12:50:01.208Z,2.77
2023-05-23T12:52:33.198Z,2.50
2023-05-23T12:55:06.225Z,2.80
2023-05-23T12:57:38.669Z,3.13
2023-05-23T13:00:11.805Z,2.90
2023-05-23T13:02:43.815Z,2.90
2023-05-23T13:05:15.900Z,2.97
2023-05-23T13:07:47.970Z,2.73
2023-05-23T13:10:20.225Z,2.77
2023-05-23T13:12:52.269Z,2.77
2023-05-23T13:15:24.219Z,2.40
2023-05-23T13:17:58.049Z,2.90
2023-05-23T13:20:30.546Z,3.00
2023-05-23T13:23:02.588Z,2.80
2023-05-23T13:25:35.128Z,3.20
2023-05-23T13:28:07.261Z,2.70
2023-05-23T13:30:39.327Z,2.80
2023-05-23T13:33:11.537Z,3.27
2023-05-23T13:35:44.321Z,2.90
2023-05-23T13:38:20.103Z,2.53
2023-05-23T13:40:52.939Z,2.83
2023-05-23T13:43:24.968Z,2.40
2023-05-23T13:45:56.985Z,2.67
2023-05-23T13:48:29.041Z,3.00
2023-05-23T13:51:01.764Z,3.13
2023-05-23T13:53:33.909Z,3.10
2023-05-23T13:56:05.994Z,2.90
2023-05-23T13:58:38.024Z,3.00
2023-05-23T14:01:10.059Z,3.23
2023-05-23T14:03:42.008Z,3.10
2023-05-23T14:06:14.033Z,3.10
2023-05-23T14:08:46.445Z,2.60
2023-05-23T14:11:18.460Z,3.20
2023-05-23T14:13:50.454Z,3.33
2023-05-23T14:16:22.573Z,2.80
2023-05-23T14:18:54.599Z,2.37
2023-05-23T14:21:26.633Z,2.57
2023-05-23T14:23:58.574Z,2.80
2023-05-23T14:26:30.685Z,2.90
2023-05-23T14:29:03.755Z,2.70
2023-05-23T14:31:35.888Z,2.63
2023-05-23T14:34:08.127Z,2.93
2023-05-23T14:36:40.117Z,2.57
2023-05-23T14:39:12.086Z,2.90
2023-05-23T14:41:44.700Z,2.90
2023-05-23T14:44:16.899Z,2.70
2023-05-23T14:46:50.169Z,2.50
2023-05-23T14:49:22.180Z,2.43
2023-05-23T14:51:54.153Z,2.80
2023-05-23T14:54:26.301Z,2.80
2023-05-23T14:56:58.327Z,4.73
2023-05-23T14:59:31.938Z,3.40
2023-05-23T15:02:04.763Z,6.13
2023-05-23T15:04:37.307Z,2.90
2023-05-23T15:07:09.613Z,3.10
2023-05-23T15:09:41.583Z,2.87
2023-05-23T15:12:15.346Z,3.20
2023-05-23T15:14:49.270Z,2.97
2023-05-23T15:17:25.798Z,2.80
2023-05-23T15:19:58.837Z,3.00
2023-05-23T15:22:38.731Z,2.80
2023-05-23T15:25:12.173Z,2.97
2023-05-23T15:27:44.927Z,3.00
2023-05-23T15:30:17.297Z,3.13
2023-05-23T15:32:49.693Z,2.70
2023-05-23T15:35:21.850Z,3.20
2023-05-23T15:37:53.818Z,2.90
2023-05-23T15:40:25.899Z,3.07
2023-05-23T15:42:57.954Z,2.90
2023-05-23T15:45:29.958Z,2.77
2023-05-23T15:48:02.070Z,2.53
2023-05-23T15:50:34.039Z,2.80
2023-05-23T15:53:06.237Z,2.77
2023-05-23T15:55:41.246Z,2.97
2023-05-23T15:58:14.250Z,3.00
2023-05-23T16:00:46.190Z,3.17
2023-05-23T16:03:18.741Z,2.70
2023-05-23T16:05:50.852Z,2.50
2023-05-23T16:08:22.798Z,3.10
2023-05-23T16:10:54.794Z,2.90
2023-05-23T16:13:26.784Z,3.07
2023-05-23T16:15:59.042Z,2.90
2023-05-23T16:18:31.189Z,3.20
2023-05-23T16:21:03.447Z,2.80
2023-05-23T16:23:35.452Z,2.53
2023-05-23T16:26:07.397Z,2.80
2023-05-23T16:28:41.338Z,2.77
2023-05-23T16:31:16.852Z,2.30
2023-05-23T16:33:49.106Z,2.47
2023-05-23T16:36:22.023Z,2.30
2023-05-23T16:38:55.629Z,3.03
2023-05-23T16:41:28.212Z,2.60
2023-05-23T16:44:00.230Z,2.90
2023-05-23T16:46:32.579Z,2.87
2023-05-23T16:49:04.662Z,2.50
2023-05-23T16:51:36.810Z,2.70
2023-05-23T16:54:09.193Z,3.03
2023-05-23T16:56:41.269Z,2.77
2023-05-23T16:59:13.192Z,2.97
2023-05-23T17:01:45.300Z,3.17
2023-05-23T17:04:20.257Z,2.90
2023-05-23T17:06:52.593Z,2.70
2023-05-23T17:09:24.566Z,2.87
2023-05-23T17:11:56.557Z,2.73
2023-05-23T17:14:28.881Z,2.93
2023-05-23T17:17:03.274Z,2.57
2023-05-23T17:19:36.146Z,2.50
2023-05-23T17:22:08.326Z,2.63
2023-05-23T17:24:40.975Z,2.70
2023-05-23T17:27:13.118Z,2.53
2023-05-23T17:29:45.081Z,3.03
2023-05-23T17:32:17.418Z,2.53
2023-05-23T17:34:49.412Z,2.60
2023-05-23T17:37:21.744Z,2.73
2023-05-23T17:39:56.767Z,2.90
2023-05-23T17:42:29.555Z,2.60
2023-05-23T17:45:01.528Z,2.63
2023-05-23T17:47:33.550Z,2.50
2023-05-23T17:50:06.381Z,2.47
2023-05-23T17:52:38.422Z,2.07
2023-05-23T17:55:10.851Z,2.10
2023-05-23T17:57:43.363Z,1.87
2023-05-23T18:00:16.278Z,2.13
2023-05-23T18:02:48.419Z,2.30
2023-05-23T18:05:20.868Z,2.30
2023-05-23T18:07:52.988Z,2.47
2023-05-23T18:10:25.033Z,2.10
2023-05-23T18:12:57.128Z,2.40
2023-05-23T18:15:29.156Z,2.37
2023-05-23T18:18:01.341Z,2.30
2023-05-23T18:20:33.398Z,2.10
2023-05-23T18:23:05.329Z,2.53
2023-05-23T18:25:37.292Z,2.70
2023-05-23T18:28:09.249Z,2.50
2023-05-23T18:30:41.570Z,2.60
2023-05-23T18:33:13.741Z,2.80
2023-05-23T18:35:46.881Z,2.40
2023-05-23T18:38:19.226Z,2.23
2023-05-23T18:40:51.315Z,2.40
2023-05-23T18:43:23.236Z,2.50
2023-05-23T18:45:55.319Z,2.40
2023-05-23T18:48:27.306Z,2.47
2023-05-23T18:50:59.293Z,2.57
2023-05-23T18:53:31.421Z,2.70
2023-05-23T18:56:03.490Z,2.40
2023-05-23T18:58:35.656Z,2.33
2023-05-23T19:01:08.353Z,2.63
2023-05-23T19:03:41.449Z,2.57
2023-05-23T19:06:13.740Z,2.57
2023-05-23T19:08:46.067Z,2.80
2023-05-23T19:11:18.134Z,2.60
2023-05-23T19:13:50.250Z,2.67
2023-05-23T19:16:22.296Z,2.30
2023-05-23T19:18:54.258Z,2.60
2023-05-23T19:21:27.733Z,2.60
2023-05-23T19:23:59.827Z,2.70
2023-05-23T19:26:31.758Z,2.60
2023-05-23T19:29:03.746Z,2.60
2023-05-23T19:31:37.876Z,2.73
2023-05-23T19:34:10.004Z,2.37
2023-05-23T19:36:42.010Z,2.50
2023-05-23T19:39:15.073Z,2.57
2023-05-23T19:41:47.135Z,2.37
2023-05-23T19:44:19.610Z,2.80
2023-05-23T19:46:52.482Z,2.70
2023-05-23T19:49:25.091Z,2.80
2023-05-23T19:51:57.119Z,2.70
2023-05-23T19:54:29.221Z,2.67
2023-05-23T19:57:01.212Z,2.47
2023-05-23T19:59:33.650Z,2.40
2023-05-23T20:02:05.776Z,2.53
2023-05-23T20:04:37.776Z,2.63
2023-05-23T20:07:09.954Z,2.23
2023-05-23T20:09:41.965Z,2.63
2023-05-23T20:12:13.953Z,2.30
2023-05-23T20:14:46.084Z,2.30
2023-05-23T20:17:18.063Z,2.10
2023-05-23T20:19:50.032Z,2.80
2023-05-23T20:22:22.168Z,2.60
2023-05-23T20:24:54.197Z,2.43
2023-05-23T20:27:26.839Z,2.33
2023-05-23T20:29:58.830Z,3.00
2023-05-23T20:32:30.854Z,2.80
2023-05-23T20:35:03.697Z,2.50
2023-05-23T20:37:35.747Z,2.40
2023-05-23T20:40:09.729Z,2.60
2023-05-23T20:42:45.205Z,2.57
2023-05-23T20:45:17.498Z,2.63
2023-05-23T20:47:49.546Z,2.70
2023-05-23T20:50:22.589Z,2.60
2023-05-23T20:52:54.965Z,2.50
2023-05-23T20:55:29.184Z,2.43
2023-05-23T20:58:01.344Z,2.57
2023-05-23T21:00:33.324Z,2.70
2023-05-23T21:03:05.411Z,2.50
2023-05-23T21:05:37.446Z,3.17
2023-05-23T21:08:09.667Z,2.33
2023-05-23T21:10:41.871Z,2.53
2023-05-23T21:13:14.095Z,2.60
2023-05-23T21:15:46.072Z,3.10
2023-05-23T21:18:17.933Z,2.77
2023-05-23T21:20:50.805Z,2.70
2023-05-23T21:23:22.804Z,2.77
2023-05-23T21:25:54.666Z,2.47
2023-05-23T21:28:26.701Z,2.70
2023-05-23T21:30:59.249Z,2.90
2023-05-23T21:33:31.335Z,2.90
2023-05-23T21:36:03.552Z,2.87
2023-05-23T21:38:37.469Z,2.60
2023-05-23T21:41:09.486Z,3.20
2023-05-23T21:43:41.410Z,2.70
2023-05-23T21:46:13.387Z,2.70
2023-05-23T21:48:45.524Z,2.33
2023-05-23T21:51:17.528Z,2.87
2023-05-23T21:53:49.566Z,2.70
2023-05-23T21:56:21.503Z,2.97
2023-05-23T21:58:53.503Z,3.07
2023-05-23T22:01:25.387Z,2.87
2023-05-23T22:03:57.377Z,2.30
2023-05-23T22:06:29.436Z,2.80
2023-05-23T22:09:01.416Z,3.23
2023-05-23T22:11:34.132Z,2.90
2023-05-23T22:14:06.457Z,2.83
2023-05-23T22:16:41.189Z,2.60
2023-05-23T22:19:18.022Z,2.80
2023-05-23T22:21:50.029Z,2.80
2023-05-23T22:24:22.075Z,2.90
2023-05-23T22:26:54.014Z,2.60
2023-05-23T22:29:26.380Z,3.00
2023-05-23T22:31:58.465Z,3.30
2023-05-23T22:34:30.545Z,2.87
2023-05-23T22:37:02.527Z,2.80
2023-05-23T22:39:34.510Z,2.40
2023-05-23T22:42:06.678Z,2.77
2023-05-23T22:44:38.678Z,3.37
2023-05-23T22:47:13.648Z,3.27
2023-05-23T22:49:45.760Z,3.23
2023-05-23T22:52:17.789Z,2.93
2023-05-23T22:54:49.906Z,2.80
2023-05-23T22:57:21.849Z,3.27
2023-05-23T22:59:53.808Z,3.37
2023-05-23T23:02:25.925Z,3.27
2023-05-23T23:04:57.929Z,2.60
2023-05-23T23:07:29.995Z,3.13
2023-05-23T23:10:01.990Z,3.17
2023-05-23T23:12:33.964Z,2.97
2023-05-23T23:15:07.716Z,2.87
2023-05-23T23:17:39.738Z,3.20
2023-05-23T23:20:12.945Z,3.07
2023-05-23T23:22:47.056Z,3.40
2023-05-23T23:25:19.066Z,3.20
2023-05-23T23:27:51.029Z,3.17
2023-05-23T23:30:23.067Z,3.43
2023-05-23T23:32:55.194Z,3.43
2023-05-23T23:35:27.269Z,3.63
2023-05-23T23:37:59.289Z,3.53
2023-05-23T23:40:31.270Z,3.50
2023-05-23T23:43:03.274Z,2.90
2023-05-23T23:45:35.561Z,3.17
2023-05-23T23:48:07.609Z,3.20
2023-05-23T23:50:39.898Z,3.53
2023-05-23T23:53:12.630Z,3.53
2023-05-23T23:55:44.630Z,3.37
2023-05-23T23:58:17.208Z,3.77
